Terminal Aerodrome Forecast
Issued by NWS Wilmington, OH

Home | Current Version | Previous Version | Text Only | Print | Product List | Glossary On
Versions: 1 2 3 4 5 6 7 8 9 10 11 12 13 14 15 16 17 18 19 20 21
396
FTUS41 KILN 291949 AAA
TAFILN
TAF AMD
KILN 291949Z 2920/3018 09008KT P6SM SCT250
     FM300000 09008KT P6SM SCT250
     FM300500 09008KT P6SM BKN100
     FM301000 10011KT P6SM BKN025
     FM301300 11011KT P6SM BKN035
     FM301600 17013G24KT P6SM BKN035=

USA.gov is the U.S. government's official web portal to all federal, state and local government web resources and services.